createdAt,value
2022-10-11T00:02:43.669Z,100.00
2022-10-11T00:17:43.651Z,100.00
2022-10-11T00:32:43.586Z,100.00
2022-10-11T00:47:43.986Z,100.00
2022-10-11T01:02:43.616Z,100.00
2022-10-11T01:17:43.701Z,100.00
2022-10-11T01:32:44.041Z,100.00
2022-10-11T01:47:43.907Z,100.00
2022-10-11T02:02:43.957Z,100.00
2022-10-11T02:17:43.921Z,100.00
2022-10-11T02:32:43.830Z,100.00
2022-10-11T02:47:43.875Z,100.00
2022-10-11T03:02:44.083Z,100.00
2022-10-11T03:17:44.035Z,100.00
2022-10-11T03:32:44.074Z,100.00
2022-10-11T03:47:44.343Z,100.00
2022-10-11T04:02:44.053Z,100.00
2022-10-11T04:17:44.028Z,100.00
2022-10-11T04:32:44.363Z,100.00
2022-10-11T04:47:44.138Z,100.00
2022-10-11T05:02:44.145Z,100.00
2022-10-11T05:17:44.278Z,100.00
2022-10-11T05:32:44.370Z,100.00
2022-10-11T05:47:44.299Z,100.00
2022-10-11T06:02:44.265Z,100.00
2022-10-11T06:17:44.258Z,100.00
2022-10-11T06:32:44.435Z,100.00
2022-10-11T06:47:44.830Z,100.00
2022-10-11T07:02:44.391Z,100.00
2022-10-11T07:17:44.884Z,100.00
2022-10-11T07:32:44.559Z,100.00
2022-10-11T07:47:44.520Z,100.00
2022-10-11T08:02:44.482Z,100.00
2022-10-11T08:17:44.727Z,100.00
2022-10-11T08:32:45.497Z,100.00
2022-10-11T08:47:45.022Z,100.00
2022-10-11T09:03:06.914Z,100.00
2022-10-11T09:17:44.680Z,100.00
2022-10-11T09:32:44.741Z,100.00
2022-10-11T09:47:44.870Z,100.00
2022-10-11T10:02:45.039Z,100.00
2022-10-11T10:17:44.842Z,91.92
2022-10-11T10:32:48.340Z,84.05
2022-10-11T10:47:44.855Z,76.36
2022-10-11T11:02:45.028Z,76.52
2022-10-11T11:17:44.875Z,69.74
2022-10-11T11:32:45.842Z,67.15
2022-10-11T11:47:44.937Z,67.15
2022-10-11T12:02:45.149Z,61.96
2022-10-11T12:17:45.446Z,62.57
2022-10-11T12:32:45.097Z,64.38
2022-10-11T12:47:45.333Z,60.24
2022-10-11T13:02:45.441Z,54.07
2022-10-11T13:17:48.352Z,54.23
2022-10-11T13:32:45.195Z,52.52
2022-10-11T13:47:45.335Z,54.06
2022-10-11T14:02:45.363Z,54.30
2022-10-11T14:17:45.461Z,52.27
2022-10-11T14:32:45.447Z,49.76
2022-10-11T14:47:45.465Z,49.63
2022-10-11T15:02:45.531Z,52.86
2022-10-11T15:17:45.680Z,52.60
2022-10-11T15:32:45.800Z,51.72
2022-10-11T15:47:45.571Z,55.05
2022-10-11T16:02:45.737Z,56.76
2022-10-11T16:17:45.646Z,59.01
2022-10-11T16:32:45.755Z,61.96
2022-10-11T16:47:45.859Z,67.02
2022-10-11T17:02:45.853Z,75.95
2022-10-11T17:17:45.958Z,84.77
2022-10-11T17:32:46.071Z,89.74
2022-10-11T17:47:46.006Z,94.34
2022-10-11T18:02:46.373Z,100.00
2022-10-11T18:17:46.190Z,100.00
2022-10-11T18:32:46.349Z,100.00
2022-10-11T18:47:46.199Z,100.00
2022-10-11T19:02:46.305Z,100.00
2022-10-11T19:17:46.416Z,100.00
2022-10-11T19:32:46.618Z,100.00
2022-10-11T19:47:46.500Z,100.00
2022-10-11T20:02:46.336Z,100.00
2022-10-11T20:17:49.918Z,100.00
2022-10-11T20:32:46.614Z,100.00
2022-10-11T20:47:46.658Z,100.00
2022-10-11T21:02:46.748Z,100.00
2022-10-11T21:17:46.501Z,100.00
2022-10-11T21:32:46.632Z,100.00
2022-10-11T21:47:46.666Z,100.00
2022-10-11T22:02:46.598Z,100.00
2022-10-11T22:17:46.880Z,100.00
2022-10-11T22:32:46.654Z,100.00
2022-10-11T22:47:46.958Z,100.00
2022-10-11T23:02:46.846Z,100.00
2022-10-11T23:17:46.735Z,100.00
2022-10-11T23:32:47.056Z,100.00
2022-10-11T23:47:47.231Z,100.00
